Terminal Aerodrome Forecast
Issued by NWS

Home | Current Version | Previous Version | Text Only | Print | Product List | Glossary On
Versions: 1 2 3 4 5 6 7 8 9 10 11 12 13 14 15
000
FTUS43 KAPX 160652 AAA
TAFPLN
TAF AMD
KPLN 160652Z 1607/1706 03006KT 5SM -SHSN OVC015
      TEMPO 1607/1610 P6SM NSW BKN050
     FM161000 03006KT P6SM BKN050
     FM162100 33005KT P6SM BKN070
     FM170000 VRB03KT P6SM SCT090=

USA.gov is the U.S. government's official web portal to all federal, state and local government web resources and services.